Terminal Aerodrome Forecast
Issued by NWS

Home | Current Version | Previous Version | Text Only | Print | Product List | Glossary On
Versions: 1 2 3 4 5 6 7 8 9 10 11 12 13 14 15 16 17 18 19 20
000
FTUS44 KTSA 020500
TAFFYV
TAF
KFYV 020520Z 0206/0306 18011KT P6SM FEW050 SCT250
     FM020800 19012G18KT P6SM BKN015
      TEMPO 0210/0214 BKN007
     FM021600 19011G20KT P6SM BKN025
     FM022000 19011KT P6SM BKN040 PROB30 0300/0306 4SM -TSRA
      BKN025CB=

USA.gov is the U.S. government's official web portal to all federal, state and local government web resources and services.